Data for 08/09/2015

Time Sea-Level Adjusted Pressure Absolute Pressure Temperature Relative Humidity Dew Point   
(mb) (inHg) (mb) (inHg) (C) (F) (%) (C) (F)
00:05 1021 30.15 850 25.1 10.2 50.3 83 7.4 45.3
00:10 1021 30.15 850 25.1 10.1 50.3 82 7.3 45.1
00:15 1021 30.15 850 25.1 10.1 50.1 83 7.3 45.1
00:20 1021 30.15 850 25.1 10.1 50.2 82 7.2 45
00:25 1021 30.15 850 25.1 10 50 83 7.2 45
00:30 1021 30.15 850 25.1 9.9 49.7 83 7.1 44.7
00:35 1021 30.15 850 25.1 9.9 49.7 82 7 44.6
00:40 1021 30.15 850 25.1 10 50 83 7.2 44.9
00:45 1021 30.15 850 25.1 9.8 49.6 83 7.1 44.8
00:50 1021 30.15 850 25.1 9.7 49.5 84 7.1 44.8
00:55 1021 30.15 850 25.1 9.6 49.3 84 7.1 44.8
01:00 1021 30.15 850 25.1 9.6 49.4 84 7.1 44.8
01:05 1021 30.15 850 25.1 9.7 49.4 84 7.1 44.8
01:10 1021 30.15 850 25.1 9.8 49.6 84 7.2 44.9
01:15 1021 30.15 850 25.1 9.8 49.6 83 7.1 44.8
01:20 1021 30.15 850 25.1 9.7 49.4 84 7.1 44.7
01:25 1021 30.15 850 25.1 9.7 49.4 84 7.1 44.8
01:30 1021 30.15 850 25.1 9.7 49.5 84 7.1 44.7
01:35 1021 30.15 850 25.1 9.7 49.4 83 6.9 44.5
01:40 1021 30.15 850 25.1 9.7 49.4 83 6.9 44.4
01:45 1021 30.15 850 25.1 9.7 49.5 82 6.8 44.3
01:50 1021 30.15 850 25.1 9.7 49.4 82 6.7 44.1
01:55 1021 30.15 850 25.1 9.7 49.4 82 6.8 44.2
02:00 1021 30.15 850 25.1 9.5 49.2 82 6.6 43.9
02:05 1021 30.15 850 25.1 9.5 49.1 82 6.6 43.8
02:10 1021 30.15 850 25.1 9.5 49.1 82 6.7 44
02:15 1021 30.15 850 25.1 9.6 49.2 82 6.6 43.9
02:20 1021 30.15 850 25.1 9.6 49.2 81 6.5 43.7
02:25 1021 30.15 850 25.1 9.6 49.3 81 6.6 43.8
02:30 1021 30.15 850 25.1 9.4 48.9 82 6.5 43.7
02:35 1021 30.15 850 25.1 9.3 48.8 81 6.3 43.3
02:40 1021 30.15 850 25.1 9.3 48.8 81 6.3 43.3
02:45 1021 30.15 850 25.1 9.4 48.9 81 6.3 43.3
02:50 1021 30.15 850 25.1 9.4 48.8 82 6.4 43.6
02:55 1021 30.15 850 25.1 9.3 48.8 82 6.4 43.5
03:00 1021 30.15 850 25.1 9.5 49 82 6.6 43.9
03:05 1021 30.15 850 25.1 9.4 48.9 82 6.6 43.8
03:10 1021 30.15 850 25.1 9.4 48.9 82 6.6 43.9
03:15 1021 30.15 850 25.1 9.4 49 83 6.6 44
03:20 1021 30.15 850 25.1 9.7 49.4 82 6.7 44
03:25 1021 30.15 850 25.1 9.6 49.3 82 6.7 44.1
03:30 1021 30.15 850 25.1 9.6 49.3 80 6.4 43.5
03:35 1021 30.15 850 25.1 9.6 49.2 81 6.4 43.5
03:40 1021 30.15 851 25.13 9.4 48.8 81 6.2 43.2
03:45 1021 30.15 851 25.13 9.3 48.7 80 6.1 42.9
03:50 1021 30.15 851 25.13 9.2 48.6 80 6 42.8
03:55 1021 30.15 851 25.13 9 48.2 82 6 42.9
04:00 1021 30.15 851 25.13 8.9 48.1 79 5.6 42
04:05 1021 30.15 851 25.13 9.2 48.6 77 5.5 41.9
04:10 1022 30.18 851 25.13 9.6 49.2 78 6 42.7
04:15 1022 30.18 851 25.13 9.6 49.2 79 6.1 43
04:20 1022 30.18 851 25.13 9.5 49.1 80 6.2 43.2
04:25 1022 30.18 851 25.13 9.5 49.1 81 6.4 43.5
04:30 1022 30.18 851 25.13 9.4 48.9 82 6.4 43.5
04:35 1022 30.18 851 25.13 9.3 48.7 81 6.2 43.2
04:40 1022 30.18 851 25.13 9.2 48.6 83 6.5 43.6
04:45 1022 30.18 851 25.13 9.3 48.7 83 6.6 43.8
04:50 1022 30.18 851 25.13 9.4 48.9 82 6.5 43.7
04:55 1022 30.18 851 25.13 9.1 48.4 83 6.3 43.4
05:00 1022 30.18 851 25.13 8.9 48.1 82 6.1 43
05:05 1022 30.18 851 25.13 9.1 48.3 81 6.1 42.9
05:10 1022 30.18 851 25.13 9.3 48.7 80 6 42.7
05:15 1022 30.18 851 25.13 9.1 48.3 80 5.9 42.6
05:20 1022 30.18 851 25.13 8.8 47.8 81 5.6 42.2
05:25 1022 30.18 851 25.13 8.9 48.1 80 5.6 42.1
05:30 1022 30.18 851 25.13 8.8 47.9 81 5.7 42.2
05:35 1022 30.18 851 25.13 8.8 47.8 79 5.4 41.6
05:40 1022 30.18 851 25.13 9 48.2 77 5.1 41.2
05:45 1022 30.18 851 25.13 9.1 48.4 76 5.2 41.3
05:50 1022 30.18 851 25.13 9 48.2 77 5.1 41.2
05:55 1022 30.18 851 25.13 8.9 48.1 77 5.2 41.3
06:00 1022 30.18 851 25.13 8.7 47.7 78 5.2 41.3
06:05 1022 30.18 851 25.13 8.8 47.8 77 5 41.1
06:10 1022 30.18 851 25.13 9.2 48.5 76 5.3 41.5
06:15 1022 30.18 851 25.13 9.6 49.4 74 5.3 41.5
06:20 1022 30.18 851 25.13 10 50 74 5.6 42.2
06:25 1022 30.18 851 25.13 10.1 50.2 74 5.8 42.4
06:30 1022 30.18 852 25.16 10.3 50.5 72 5.5 41.9
06:35 1022 30.18 852 25.16 10.6 51 72 5.8 42.5
06:40 1022 30.18 852 25.16 11.1 52 70 6 42.8
06:45 1023 30.21 852 25.16 11.4 52.5 72 6.6 43.8
06:50 1023 30.21 852 25.16 11.4 52.5 71 6.3 43.4
06:55 1023 30.21 852 25.16 11.1 52 72 6.3 43.4
07:00 1023 30.21 852 25.16 11.3 52.4 72 6.4 43.6
07:05 1023 30.21 852 25.16 11.6 53 70 6.5 43.6
07:10 1023 30.21 852 25.16 11.9 53.5 71 6.9 44.4
07:15 1023 30.21 852 25.16 12.8 55 69 7.3 45.1
07:20 1023 30.21 852 25.16 13.5 56.3 65 7 44.7
07:25 1023 30.21 852 25.16 13.9 57.1 66 7.6 45.8
07:30 1023 30.21 852 25.16 14.1 57.3 64 7.3 45.2
07:35 1023 30.21 852 25.16 14.4 57.9 61 7 44.7
07:40 1023 30.21 852 25.16 14.5 58 63 7.6 45.7
07:45 1023 30.21 852 25.16 14.1 57.4 64 7.4 45.4
07:50 1023 30.21 852 25.16 14.5 58.1 62 7.3 45.2
07:55 1023 30.21 852 25.16 14.8 58.7 62 7.7 45.9
08:00 1023 30.21 852 25.16 15.2 59.4 60 7.6 45.6
08:05 1023 30.21 852 25.16 15.3 59.5 61 8 46.3
08:10 1023 30.21 852 25.16 16 60.8 57 7.7 45.9
08:15 1023 30.21 852 25.16 16.5 61.6 57 8 46.4
08:20 1023 30.21 852 25.16 16.4 61.5 56 7.7 45.8
08:25 1023 30.21 852 25.16 16.1 61 56 7.5 45.6
08:30 1023 30.21 852 25.16 16 60.7 56 7.3 45.1
08:35 1023 30.21 852 25.16 16 60.8 55 7.2 44.9
08:40 1023 30.21 852 25.16 16.5 61.7 53 7 44.6
08:45 1023 30.21 852 25.16 17.3 63.1 52 7.4 45.3
08:50 1023 30.21 852 25.16 17.4 63.4 51 7.3 45.2
08:55 1023 30.21 852 25.16 17.9 64.2 50 7.4 45.4
09:00 1023 30.21 852 25.16 18.5 65.3 49 7.7 45.9
09:05 1023 30.21 852 25.16 17.7 63.8 51 7.4 45.3
09:10 1023 30.21 852 25.16 18.6 65.4 45 6.5 43.7
09:15 1023 30.21 852 25.16 19.5 67.2 43 6.8 44.3
09:20 1023 30.21 852 25.16 19.6 67.3 43 7 44.6
09:25 1023 30.21 852 25.16 19.6 67.2 44 7 44.6
09:30 1023 30.21 852 25.16 19.9 67.8 44 7.5 45.4
09:35 1023 30.21 852 25.16 20.2 68.3 42 7.1 44.7
09:40 1023 30.21 852 25.16 19.4 66.8 45 7.4 45.3
09:45 1023 30.21 852 25.16 19.5 67.1 45 7.5 45.6
09:50 1023 30.21 852 25.16 20.5 68.9 42 7.1 44.9
09:55 1023 30.21 852 25.16 20.4 68.7 41 6.8 44.3
10:00 1023 30.21 852 25.16 20.2 68.4 41 6.7 44.1
10:05 1023 30.21 852 25.16 21 69.9 38 6.5 43.7
10:10 1023 30.21 852 25.16 21.6 70.8 38 6.9 44.4
10:15 1023 30.21 852 25.16 21.5 70.8 37 6.3 43.3
10:20 1023 30.21 852 25.16 22.1 71.8 34 5.6 42.1
10:25 1023 30.21 852 25.16 22 71.7 34 5.6 42.1
10:30 1023 30.21 852 25.16 21.2 70.1 38 6.3 43.3
10:35 1023 30.21 852 25.16 21 69.8 36 5.6 42.2
10:40 1023 30.21 852 25.16 22.1 71.7 33 5.2 41.3
10:45 1023 30.21 852 25.16 21.8 71.3 36 6.2 43.1
10:50 1023 30.21 852 25.16 21.6 70.9 35 5.5 42
10:55 1023 30.21 852 25.16 21.8 71.2 34 5.3 41.6
11:00 1023 30.21 852 25.16 22.2 71.9 32 4.8 40.6
11:05 1023 30.21 852 25.16 22.6 72.7 30 4.6 40.2
11:10 1023 30.21 852 25.16 23.2 73.7 29 4.5 40.1
11:15 1023 30.21 852 25.16 23.7 74.6 31 5.8 42.5
11:20 1023 30.21 852 25.16 23.8 74.9 29 4.9 40.8
11:25 1023 30.21 852 25.16 24.2 75.6 29 5.2 41.4
11:30 1023 30.21 852 25.16 24 75.2 29 5 41.1
11:35 1023 30.21 852 25.16 23.4 74.1 29 4.4 39.9
11:40 1023 30.21 852 25.16 24 75.2 28 4.5 40.1
11:45 1023 30.21 852 25.16 24.4 76 27 4.7 40.5
11:50 1023 30.21 852 25.16 24.8 76.7 25 3.8 38.9
11:55 1023 30.21 852 25.16 25 77 27 4.7 40.5
12:00 1023 30.21 852 25.16 24.6 76.2 26 4.2 39.5
12:05 1023 30.21 852 25.16 23.6 74.6 29 4.9 40.9
12:10 1023 30.21 852 25.16 24.2 75.5 26 3.6 38.5
12:15 1023 30.21 852 25.16 23.3 74 26 2.9 37.2
12:20 1023 30.21 852 25.16 23.9 74.9 25 2.8 37
12:25 1023 30.21 852 25.16 24.2 75.5 24 2.9 37.2
12:30 1023 30.21 852 25.16 25.1 77.2 24 3.3 38
12:35 1023 30.21 852 25.16 24.9 76.9 24 3.2 37.7
12:40 1023 30.21 852 25.16 25.1 77.2 24 3.6 38.5
12:45 1023 30.21 852 25.16 24.6 76.3 25 3.2 37.8
12:50 1023 30.21 852 25.16 23.9 74.9 26 3.2 37.8
12:55 1023 30.21 852 25.16 23.5 74.2 24 2.1 35.9
13:00 1023 30.21 852 25.16 23.8 74.8 24 2 35.7
13:05 1023 30.21 852 25.16 24.1 75.3 23 1.6 35
13:10 1023 30.21 852 25.16 25.2 77.4 21 1.5 34.8
13:15 1023 30.21 852 25.16 25.8 78.4 20 1.3 34.3
13:20 1023 30.21 852 25.16 25.9 78.6 20 1.8 35.3
13:25 1023 30.21 852 25.16 25.7 78.2 21 2.1 35.8
13:30 1023 30.21 852 25.16 26.6 79.9 20 2.1 35.7
13:35 1023 30.21 852 25.16 26.8 80.3 19 1.3 34.3
13:40 1023 30.21 852 25.16 26.6 79.9 21 2.5 36.6
13:45 1023 30.21 852 25.16 26.1 79 20 1.4 34.5
13:50 1023 30.21 852 25.16 25.9 78.7 21 2.3 36.2
13:55 1023 30.21 852 25.16 26 78.9 20 1.8 35.2
14:00 1023 30.21 852 25.16 26.5 79.6 22 3.4 38.1
14:05 1022 30.18 852 25.16 26.5 79.8 20 2.2 35.9
14:10 1022 30.18 852 25.16 26.9 80.5 21 2.8 37
14:15 1022 30.18 852 25.16 26.9 80.5 21 3 37.3
14:20 1022 30.18 852 25.16 27.5 81.5 19 2.2 35.9
14:25 1022 30.18 851 25.13 27.4 81.2 20 2.6 36.7
14:30 1022 30.18 851 25.13 27 80.5 19 1.9 35.3
14:35 1022 30.18 851 25.13 27.1 80.8 18 0.8 33.5
14:40 1022 30.18 851 25.13 27.4 81.4 18 1.1 34
14:45 1022 30.18 851 25.13 27.3 81.2 17 0.8 33.4
14:50 1022 30.18 851 25.13 27.2 81 18 0.9 33.5
14:55 1022 30.18 851 25.13 27.4 81.4 17 0.6 33.1
15:00 1022 30.18 851 25.13 27.5 81.5 18 1.1 34
15:05 1022 30.18 851 25.13 27.5 81.4 16 -0.5 31.1
15:10 1022 30.18 851 25.13 27.4 81.3 17 0.4 32.8
15:15 1022 30.18 851 25.13 27.3 81.1 17 0.2 32.3
15:20 1022 30.18 851 25.13 27.1 80.9 17 0.6 33
15:25 1022 30.18 851 25.13 27.1 80.8 16 -0.8 30.5
15:30 1022 30.18 851 25.13 27.3 81.1 18 0.9 33.6
15:35 1022 30.18 851 25.13 27.7 81.8 16 -0.3 31.4
15:40 1022 30.18 851 25.13 28 82.3 17 0.6 33
15:45 1022 30.18 851 25.13 27.6 81.8 18 1.3 34.3
15:50 1022 30.18 851 25.13 27.6 81.7 17 0.3 32.5
15:55 1022 30.18 851 25.13 27.7 81.8 17 0.6 33.1
16:00 1022 30.18 851 25.13 27.6 81.7 17 0.3 32.6
16:05 1022 30.18 851 25.13 27.8 82 19 2.4 36.3
16:10 1022 30.18 851 25.13 27.9 82.2 15 -1.2 29.9
16:15 1022 30.18 851 25.13 28 82.4 15 -0.6 30.9
16:20 1022 30.18 851 25.13 28.2 82.7 15 -0.3 31.4
16:25 1022 30.18 851 25.13 28.2 82.7 15 -0.3 31.5
16:30 1022 30.18 851 25.13 27.7 81.8 17 0.5 33
16:35 1022 30.18 851 25.13 27.6 81.6 17 0.4 32.7
16:40 1022 30.18 851 25.13 27.6 81.7 16 -0.6 31
16:45 1022 30.18 851 25.13 27.6 81.8 17 0.5 32.9
16:50 1022 30.18 851 25.13 27.3 81.2 17 0.6 33.1
16:55 1022 30.18 851 25.13 27 80.5 17 0.2 32.4
17:00 1022 30.18 851 25.13 26.6 80 17 -0.2 31.7
17:05 1022 30.18 851 25.13 26.3 79.4 17 -0.1 31.8
17:10 1022 30.18 851 25.13 27.1 80.7 16 -0.6 30.9
17:15 1022 30.18 851 25.13 26.7 80 17 -0.4 31.3
17:20 1022 30.18 851 25.13 26.7 80.1 17 0.3 32.5
17:25 1022 30.18 851 25.13 26.6 79.8 17 0 32.1
17:30 1022 30.18 851 25.13 26.1 78.9 19 1.1 34
17:35 1022 30.18 851 25.13 26.3 79.3 19 0.7 33.3
17:40 1022 30.18 851 25.13 26.3 79.3 18 -0.1 31.9
17:45 1022 30.18 851 25.13 26.2 79.2 18 0.1 32.2
17:50 1022 30.18 851 25.13 25.9 78.6 19 0.9 33.5
17:55 1022 30.18 851 25.13 25.3 77.6 19 0.5 32.8
18:00 1022 30.18 851 25.13 25.2 77.4 19 0.5 33
18:05 1022 30.18 851 25.13 25.2 77.3 19 -0 32
18:10 1022 30.18 851 25.13 25 77.1 19 0.4 32.7
18:15 1022 30.18 851 25.13 24.9 76.9 20 0.9 33.7
18:20 1022 30.18 851 25.13 24.9 76.7 20 0.7 33.2
18:25 1022 30.18 851 25.13 24.8 76.7 20 0.7 33.2
18:30 1022 30.18 851 25.13 24.7 76.5 20 0.7 33.2
18:35 1022 30.18 851 25.13 24.6 76.3 19 -0.3 31.5
18:40 1022 30.18 851 25.13 24.6 76.4 20 0.6 33.1
18:45 1022 30.18 851 25.13 24.4 75.9 20 0.5 32.9
18:50 1022 30.18 851 25.13 24.3 75.7 20 -0.2 31.7
18:55 1022 30.18 851 25.13 24.4 75.9 20 -0.1 31.8
19:00 1022 30.18 851 25.13 24.2 75.6 22 1.6 34.8
19:05 1022 30.18 851 25.13 23.9 75.1 22 0.9 33.7
19:10 1022 30.18 851 25.13 23.8 74.8 24 2.4 36.4
19:15 1022 30.18 851 25.13 23.3 73.9 27 3.5 38.3
19:20 1022 30.18 851 25.13 23.1 73.5 28 3.6 38.6
19:25 1022 30.18 851 25.13 22.8 73 32 5.5 41.9
19:30 1022 30.18 851 25.13 21.8 71.2 39 7.2 45
19:35 1022 30.18 851 25.13 20.7 69.2 40 6.8 44.3
19:40 1022 30.18 851 25.13 20.2 68.3 41 6.6 43.9
19:45 1022 30.18 851 25.13 20 67.9 42 6.8 44.3
19:50 1022 30.18 851 25.13 19.7 67.5 43 6.9 44.4
19:55 1022 30.18 851 25.13 19.3 66.7 45 7.1 44.7
20:00 1022 30.18 851 25.13 19.1 66.4 45 6.9 44.5
20:05 1022 30.18 852 25.16 18.8 65.9 46 7.1 44.8
20:10 1022 30.18 852 25.16 18.5 65.3 46 6.6 43.9
20:15 1022 30.18 852 25.16 18.5 65.2 46 6.7 44.1
20:20 1023 30.21 852 25.16 18.3 64.9 45 6.4 43.5
20:25 1023 30.21 852 25.16 18.3 65 44 5.9 42.7
20:30 1023 30.21 852 25.16 18.3 65 45 6.2 43.1
20:35 1023 30.21 852 25.16 18.2 64.8 45 6.3 43.4
20:40 1023 30.21 852 25.16 18.1 64.5 45 6 42.8
20:45 1023 30.21 852 25.16 18 64.4 46 6.3 43.4
20:50 1023 30.21 852 25.16 17.8 64.1 46 6.2 43.1
20:55 1023 30.21 852 25.16 17.7 63.8 46 6.1 43
21:00 1023 30.21 852 25.16 17.7 63.9 46 6.1 43
21:05 1023 30.21 852 25.16 17.7 63.9 47 6.2 43.2
21:10 1023 30.21 852 25.16 17.7 63.8 45 5.6 42.2
21:15 1023 30.21 852 25.16 17.7 63.8 46 6.1 42.9
21:20 1023 30.21 852 25.16 17.4 63.2 46 5.7 42.3
21:25 1023 30.21 852 25.16 17.3 63.2 46 5.8 42.5
21:30 1023 30.21 852 25.16 17.3 63.1 46 5.6 42.1
21:35 1023 30.21 852 25.16 17.3 63.1 46 5.8 42.5
21:40 1023 30.21 852 25.16 17.2 62.9 47 5.8 42.5
21:45 1023 30.21 852 25.16 16.9 62.4 48 5.9 42.5
21:50 1023 30.21 852 25.16 16.7 62 49 5.9 42.6
21:55 1023 30.21 852 25.16 16.5 61.7 49 6 42.8
22:00 1023 30.21 852 25.16 16.4 61.6 49 5.8 42.4
22:05 1023 30.21 852 25.16 16.4 61.4 49 5.8 42.5
22:10 1023 30.21 852 25.16 16.2 61.2 51 6.1 43
22:15 1023 30.21 852 25.16 16 60.8 51 5.9 42.6
22:20 1023 30.21 852 25.16 16 60.8 50 5.7 42.2
22:25 1023 30.21 852 25.16 16 60.8 50 5.7 42.3
22:30 1023 30.21 852 25.16 16.1 60.9 50 5.7 42.2
22:35 1023 30.21 852 25.16 16.1 60.9 48 5.2 41.4
22:40 1023 30.21 852 25.16 16.2 61.1 50 5.9 42.6
22:45 1023 30.21 852 25.16 15.9 60.7 51 5.8 42.5
22:50 1023 30.21 852 25.16 15.9 60.7 49 5.4 41.7
22:55 1023 30.21 852 25.16 16.1 61 49 5.4 41.7
23:00 1023 30.21 852 25.16 16.1 61 50 5.6 42.1
23:05 1023 30.21 852 25.16 16.1 60.9 50 5.7 42.2
23:10 1023 30.21 852 25.16 16 60.8 51 5.8 42.5
23:15 1023 30.21 852 25.16 15.9 60.5 50 5.7 42.2
23:20 1023 30.21 852 25.16 15.8 60.5 51 5.8 42.5
23:25 1023 30.21 852 25.16 15.7 60.2 51 5.7 42.2
23:30 1023 30.21 852 25.16 15.5 59.8 52 5.8 42.4
23:35 1023 30.21 852 25.16 15.3 59.6 52 5.6 42
23:40 1023 30.21 852 25.16 15.4 59.7 52 5.6 42.2
23:45 1023 30.21 852 25.16 15.3 59.6 52 5.7 42.3
23:50 1023 30.21 853 25.19 15.2 59.3 55 6.2 43.2
23:55 1023 30.21 853 25.19 15.2 59.4 52 5.5 42
24:00 1023 30.21 853 25.19 15.2 59.4 52 5.6 42